Time;durP1;ratioP1;P1;durP2;ratioP2;P2;SDS_P1;SDS_P2;PMS_P1;PMS_P2;Temp;Humidity;BMP_temperature;BMP_pressure;BME280_temperature;BME280_humidity;BME280_pressure;Samples;Min_cycle;Max_cycle;Signal;HPM_P1;HPM_P2
2022/05/28 00:00:00;;;;;;;20.25;4.68;;;20.70;99.90;;;;;;5053707;28;20071;-77
2022/05/28 00:02:27;;;;;;;17.60;4.30;;;20.60;99.90;;;;;;5054435;28;20067;-78
2022/05/28 00:04:53;;;;;;;20.70;4.40;;;20.60;99.90;;;;;;5071559;28;20021;-77
2022/05/28 00:07:19;;;;;;;21.55;4.70;;;20.50;99.90;;;;;;5071633;28;20153;-78
2022/05/28 00:09:45;;;;;;;22.48;4.95;;;20.40;99.90;;;;;;5071549;28;20033;-83
2022/05/28 00:12:11;;;;;;;19.40;4.03;;;20.40;99.90;;;;;;5071111;28;20182;-77
2022/05/28 00:14:39;;;;;;;16.92;3.97;;;20.40;99.90;;;;;;5071666;28;20021;-72
2022/05/28 00:18:21;;;;;;;19.77;4.15;;;20.40;99.90;;;;;;5070198;28;20052;-71
2022/05/28 00:21:38;;;;;;;17.45;3.97;;;20.30;99.90;;;;;;5015611;28;20033;-72
2022/05/28 00:24:05;;;;;;;19.73;3.70;;;20.30;99.90;;;;;;5029292;28;20037;-76
2022/05/28 00:26:32;;;;;;;25.52;4.65;;;20.40;99.90;;;;;;5029048;28;20029;-77
2022/05/28 00:28:58;;;;;;;17.42;4.25;;;20.30;99.90;;;;;;5028894;28;20044;-77
2022/05/28 00:31:25;;;;;;;20.92;4.25;;;20.40;99.90;;;;;;5028972;28;20057;-75
2022/05/28 00:33:51;;;;;;;;;;;20.40;99.90;;;;;;5029612;28;20037;-76
2022/05/28 00:36:18;;;;;;;25.75;4.20;;;20.40;99.90;;;;;;5029113;28;19991;-77
2022/05/28 00:38:47;;;;;;;24.60;5.28;;;20.40;99.90;;;;;;5029397;28;20132;-77
2022/05/28 00:41:14;;;;;;;15.32;3.85;;;20.40;99.90;;;;;;5028656;28;20029;-77
2022/05/28 00:43:46;;;;;;;17.02;4.75;;;20.40;99.90;;;;;;5028904;28;20071;-77
2022/05/28 00:46:18;;;;;;;20.00;4.65;;;20.30;99.90;;;;;;5029064;28;20466;-77
2022/05/28 00:48:48;;;;;;;17.20;4.25;;;20.20;99.90;;;;;;5028846;28;20041;-77
2022/05/28 00:51:21;;;;;;;17.80;4.15;;;20.10;99.90;;;;;;5028818;28;20057;-77
2022/05/28 00:53:48;;;;;;;19.38;4.50;;;20.10;99.90;;;;;;5028665;28;20255;-77
2022/05/28 00:56:15;;;;;;;17.40;4.38;;;20.20;99.90;;;;;;5048002;28;20047;-77
2022/05/28 00:58:41;;;;;;;;;;;20.30;99.90;;;;;;5071356;28;20021;-78
2022/05/28 01:01:09;;;;;;;13.30;3.95;;;20.40;99.90;;;;;;5070742;28;19916;-77
2022/05/28 01:03:50;;;;;;;16.42;3.67;;;20.40;99.90;;;;;;5070576;28;20020;-76
2022/05/28 01:06:30;;;;;;;21.15;3.83;;;20.40;99.90;;;;;;5071528;28;20417;-77
2022/05/28 01:09:06;;;;;;;18.08;4.50;;;20.50;99.90;;;;;;5070954;28;20036;-77
2022/05/28 01:12:13;;;;;;;17.45;4.43;;;20.60;99.90;;;;;;5052993;28;20037;-77
2022/05/28 01:15:02;;;;;;;16.88;3.92;;;20.60;99.90;;;;;;5046865;28;20047;-78
2022/05/28 01:17:35;;;;;;;16.83;3.97;;;20.60;99.90;;;;;;5071339;28;20098;-78
2022/05/28 01:20:07;;;;;;;24.50;4.75;;;20.60;99.90;;;;;;5071375;28;20029;-77
2022/05/28 01:22:46;;;;;;;18.58;4.63;;;20.70;99.90;;;;;;5070303;28;20468;-77
2022/05/28 01:25:42;;;;;;;17.58;4.28;;;20.70;99.90;;;;;;5070645;28;20032;-77
2022/05/28 01:28:13;;;;;;;19.52;4.07;;;20.70;99.90;;;;;;5070386;28;20032;-78
2022/05/28 01:30:47;;;;;;;17.17;4.53;;;20.70;99.90;;;;;;5071178;28;20033;-77
2022/05/28 01:33:15;;;;;;;21.50;4.85;;;20.70;99.90;;;;;;5070941;28;20116;-78
2022/05/28 01:35:44;;;;;;;20.00;4.93;;;20.50;99.90;;;;;;5061245;28;20100;-77
2022/05/28 01:38:14;;;;;;;21.10;4.57;;;20.20;99.90;;;;;;5054596;28;20036;-77
2022/05/28 01:40:41;;;;;;;25.45;5.15;;;20.00;99.90;;;;;;5073856;28;20392;-78
2022/05/28 01:43:11;;;;;;;17.38;4.97;;;20.00;99.90;;;;;;5078055;28;20032;-78
2022/05/28 01:45:41;;;;;;;21.42;4.53;;;20.00;99.90;;;;;;5074300;28;20124;-77
2022/05/28 01:48:07;;;;;;;19.10;4.50;;;20.00;99.90;;;;;;5074609;28;20028;-77
2022/05/28 01:50:40;;;;;;;18.77;4.40;;;20.00;99.90;;;;;;5074176;28;20491;-78
2022/05/28 01:56:05;;;;;;;19.42;4.90;;;19.90;99.90;;;;;;5074042;28;20044;-77
2022/05/28 01:58:32;;;;;;;19.30;4.47;;;19.80;99.90;;;;;;5074381;28;20100;-78
2022/05/28 02:01:00;;;;;;;22.52;5.05;;;19.70;99.90;;;;;;5073896;28;20060;-77
2022/05/28 02:03:31;;;;;;;24.60;5.25;;;19.70;99.90;;;;;;5074414;28;20070;-78
2022/05/28 02:05:57;;;;;;;21.55;4.28;;;19.60;99.90;;;;;;5073724;28;20044;-78
2022/05/28 02:08:24;;;;;;;25.20;4.50;;;19.60;99.90;;;;;;5074142;28;20103;-77
2022/05/28 02:11:04;;;;;;;20.75;4.65;;;19.60;99.90;;;;;;5073603;28;20416;-76
2022/05/28 02:13:48;;;;;;;22.83;5.10;;;19.60;99.90;;;;;;5073645;28;20025;-77
2022/05/28 02:16:20;;;;;;;15.38;4.10;;;19.60;99.90;;;;;;5073811;28;20134;-77
2022/05/28 02:18:59;;;;;;;20.63;4.70;;;19.60;99.90;;;;;;5074109;28;20459;-78
2022/05/28 02:21:43;;;;;;;22.95;4.95;;;19.60;99.90;;;;;;5073585;28;20483;-77
2022/05/28 02:24:21;;;;;;;15.20;4.25;;;19.60;99.90;;;;;;5073884;28;20368;-76
2022/05/28 02:27:02;;;;;;;24.67;4.47;;;19.60;99.90;;;;;;5054078;28;20025;-78
2022/05/28 02:29:31;;;;;;;18.00;4.57;;;19.60;99.90;;;;;;5054822;28;20031;-76
2022/05/28 02:31:57;;;;;;;26.25;4.50;;;19.50;99.90;;;;;;5074313;28;20040;-77
2022/05/28 02:34:23;;;;;;;21.25;4.30;;;19.50;99.90;;;;;;5073601;28;20027;-77
2022/05/28 02:36:50;;;;;;;17.27;4.15;;;19.50;99.90;;;;;;5073422;28;20071;-77
2022/05/28 02:39:16;;;;;;;25.83;4.25;;;19.50;99.90;;;;;;5073665;28;20079;-77
2022/05/28 02:41:42;;;;;;;21.60;4.40;;;19.50;99.90;;;;;;5072810;28;20032;-77
2022/05/28 02:44:09;;;;;;;16.38;3.80;;;19.50;99.90;;;;;;5073675;28;20484;-78
2022/05/28 02:46:35;;;;;;;;;;;19.60;99.90;;;;;;5073721;28;20496;-77
2022/05/28 02:49:01;;;;;;;15.02;3.75;;;19.60;99.90;;;;;;5073613;28;19911;-77
2022/05/28 02:51:28;;;;;;;14.70;3.83;;;19.60;99.90;;;;;;5072619;28;20025;-78
2022/05/28 02:53:55;;;;;;;16.40;4.05;;;19.70;99.90;;;;;;5073500;28;20028;-78
2022/05/28 02:56:22;;;;;;;16.08;3.25;;;19.70;99.90;;;;;;5072862;28;20021;-78
2022/05/28 02:58:48;;;;;;;17.20;3.70;;;19.70;99.90;;;;;;5038614;28;20028;-76
2022/05/28 03:01:23;;;;;;;16.02;3.47;;;19.70;99.90;;;;;;5072691;28;20052;-76
2022/05/28 03:03:49;;;;;;;16.83;4.07;;;19.80;99.90;;;;;;5072496;28;20146;-75
2022/05/28 03:06:15;;;;;;;15.73;3.53;;;19.80;99.90;;;;;;5054221;28;20074;-76
2022/05/28 03:08:42;;;;;;;17.40;3.95;;;19.90;99.90;;;;;;5072732;28;20028;-78
2022/05/28 03:11:09;;;;;;;12.80;3.42;;;19.90;99.90;;;;;;5073225;28;20154;-79
2022/05/28 03:13:36;;;;;;;14.27;3.47;;;20.00;99.90;;;;;;5073399;28;20076;-77
2022/05/28 03:16:02;;;;;;;17.40;3.78;;;19.90;99.90;;;;;;5073016;28;20456;-78
2022/05/28 03:18:28;;;;;;;16.00;3.45;;;19.90;99.90;;;;;;5072829;28;20100;-78
2022/05/28 03:20:54;;;;;;;18.58;3.35;;;19.80;99.90;;;;;;5073101;28;20120;-78
2022/05/28 03:23:20;;;;;;;10.13;2.70;;;19.80;99.90;;;;;;5073564;28;20020;-77
2022/05/28 03:25:47;;;;;;;15.27;2.85;;;19.80;99.90;;;;;;5073280;28;20040;-77
2022/05/28 03:28:16;;;;;;;12.63;3.13;;;19.80;99.90;;;;;;5054930;28;20082;-78
2022/05/28 03:30:42;;;;;;;10.88;2.80;;;19.60;99.90;;;;;;5055309;28;20035;-77
2022/05/28 03:33:08;;;;;;;12.25;2.60;;;19.60;99.90;;;;;;5073690;28;20064;-78
2022/05/28 03:35:35;;;;;;;11.93;2.40;;;19.60;99.90;;;;;;5055342;28;20024;-77
2022/05/28 03:38:01;;;;;;;9.02;2.03;;;19.60;99.90;;;;;;5073223;28;20092;-78
2022/05/28 03:40:27;;;;;;;9.85;2.00;;;19.60;99.90;;;;;;5073163;28;20036;-77
2022/05/28 03:42:53;;;;;;;7.70;1.90;;;19.70;99.90;;;;;;5072758;28;20032;-77
2022/05/28 03:45:20;;;;;;;11.50;2.13;;;19.70;99.90;;;;;;5072857;28;20098;-77
2022/05/28 03:47:47;;;;;;;9.52;1.92;;;19.70;99.90;;;;;;5072331;28;20028;-76
2022/05/28 03:50:13;;;;;;;7.65;1.83;;;19.80;99.90;;;;;;5072569;28;20082;-77
2022/05/28 03:52:39;;;;;;;11.75;1.80;;;19.70;99.90;;;;;;5054277;28;20226;-77
2022/05/28 03:55:06;;;;;;;7.63;1.70;;;19.70;99.90;;;;;;5072392;28;20025;-72
2022/05/28 03:57:33;;;;;;;8.77;1.60;;;19.70;99.90;;;;;;5072219;28;20090;-77
2022/05/28 04:00:00;;;;;;;8.48;1.80;;;19.70;99.90;;;;;;5071645;28;20096;-77
2022/05/28 04:02:27;;;;;;;9.82;2.13;;;19.70;99.90;;;;;;5054087;28;20518;-78
2022/05/28 04:04:54;;;;;;;10.85;1.70;;;19.60;99.90;;;;;;5072022;28;20469;-77
2022/05/28 04:07:20;;;;;;;6.60;1.70;;;19.70;99.90;;;;;;5072380;28;20492;-78
2022/05/28 04:09:46;;;;;;;;;;;19.70;99.90;;;;;;5072264;28;20047;-77
2022/05/28 04:12:13;;;;;;;7.72;1.60;;;19.60;99.90;;;;;;5072357;28;20285;-77
2022/05/28 04:14:39;;;;;;;7.88;1.80;;;19.60;99.90;;;;;;5072387;28;20028;-76
2022/05/28 04:17:06;;;;;;;7.63;1.77;;;19.80;99.90;;;;;;5072624;28;20039;-77
2022/05/28 04:19:32;;;;;;;12.15;2.00;;;19.80;99.90;;;;;;5072268;28;20040;-77
2022/05/28 04:21:58;;;;;;;12.15;2.05;;;19.90;99.90;;;;;;5073452;28;20035;-75
2022/05/28 04:24:24;;;;;;;12.40;2.13;;;19.90;99.90;;;;;;5072547;28;20032;-75
2022/05/28 04:26:50;;;;;;;12.57;1.88;;;20.00;99.90;;;;;;5073274;28;20028;-75
2022/05/28 04:29:16;;;;;;;8.32;2.13;;;20.10;99.90;;;;;;5072466;28;20063;-75
2022/05/28 04:31:42;;;;;;;9.00;1.98;;;20.20;99.90;;;;;;5072528;28;20068;-75
2022/05/28 04:34:09;;;;;;;9.70;2.30;;;20.20;99.90;;;;;;5072377;28;20060;-75
2022/05/28 04:36:35;;;;;;;10.40;2.30;;;20.30;99.90;;;;;;5072776;28;20021;-75
2022/05/28 04:39:02;;;;;;;6.35;1.60;;;20.40;99.90;;;;;;5072482;28;20059;-74
2022/05/28 04:41:28;;;;;;;7.30;1.77;;;20.30;99.90;;;;;;5072103;28;20540;-74
2022/05/28 04:43:54;;;;;;;7.68;1.60;;;20.20;99.90;;;;;;5072600;28;20050;-75
2022/05/28 04:46:21;;;;;;;6.72;1.73;;;20.10;99.90;;;;;;5071990;28;20130;-73
2022/05/28 04:48:47;;;;;;;9.02;1.63;;;20.20;99.90;;;;;;5072425;28;20025;-75
2022/05/28 04:51:13;;;;;;;6.07;1.60;;;20.20;99.90;;;;;;5072988;28;20033;-80
2022/05/28 04:53:39;;;;;;;6.78;2.00;;;20.20;99.90;;;;;;5054246;28;20037;-81
2022/05/28 04:56:17;;;;;;;7.22;1.95;;;20.30;99.90;;;;;;5072614;28;20028;-81
2022/05/28 04:58:44;;;;;;;8.20;1.55;;;20.40;99.90;;;;;;5071722;28;20029;-81
2022/05/28 05:01:15;;;;;;;5.10;1.40;;;20.70;99.90;;;;;;5050248;28;20130;-80
2022/05/28 05:03:41;;;;;;;8.82;1.35;;;21.90;99.90;;;;;;5051943;28;20040;-80
2022/05/28 05:06:07;;;;;;;5.60;1.35;;;23.80;99.90;;;;;;5053150;28;20127;-81
2022/05/28 05:08:33;;;;;;;7.25;1.48;;;25.60;99.90;;;;;;5050086;28;20094;-81
2022/05/28 05:11:00;;;;;;;4.65;1.20;;;27.00;99.90;;;;;;5051499;28;20393;-77
2022/05/28 05:13:27;;;;;;;8.73;1.25;;;28.40;97.50;;;;;;5041049;28;20018;-77
2022/05/28 05:15:53;;;;;;;4.72;1.38;;;29.20;94.30;;;;;;5037172;28;20456;-77
2022/05/28 05:18:19;;;;;;;;;;;30.90;91.90;;;;;;5051675;28;20493;-78
2022/05/28 05:20:45;;;;;;;6.78;1.60;;;31.80;87.00;;;;;;5037261;28;19948;-77
2022/05/28 05:23:12;;;;;;;5.97;1.40;;;33.20;83.30;;;;;;5042324;28;20508;-80
2022/05/28 05:25:38;;;;;;;5.22;1.50;;;34.00;79.10;;;;;;5056917;28;20074;-77
2022/05/28 05:28:04;;;;;;;5.65;1.45;;;34.90;75.80;;;;;;5055734;28;20021;-79
2022/05/28 05:30:30;;;;;;;8.48;1.67;;;35.20;72.20;;;;;;5054131;28;20029;-80
2022/05/28 05:32:56;;;;;;;6.43;1.55;;;35.30;72.60;;;;;;5054786;28;20087;-80
2022/05/28 05:35:23;;;;;;;7.75;1.50;;;36.00;70.40;;;;;;5054473;28;20025;-79
2022/05/28 05:37:49;;;;;;;7.28;1.38;;;36.70;67.30;;;;;;5054758;28;20489;-80
2022/05/28 05:40:15;;;;;;;6.25;1.58;;;36.80;67.20;;;;;;5054508;28;20060;-79
2022/05/28 05:42:42;;;;;;;4.80;1.30;;;36.80;66.70;;;;;;5054889;28;20401;-80
2022/05/28 05:45:08;;;;;;;4.18;1.30;;;38.00;64.70;;;;;;5054579;28;20020;-80
2022/05/28 05:47:35;;;;;;;5.82;1.40;;;38.50;62.70;;;;;;5054449;28;20090;-80
2022/05/28 05:50:01;;;;;;;6.50;1.65;;;38.60;62.30;;;;;;5054167;28;20473;-80
2022/05/28 05:52:27;;;;;;;8.38;1.80;;;39.30;60.60;;;;;;5053530;28;20037;-80
2022/05/28 05:54:53;;;;;;;8.52;1.63;;;40.10;59.40;;;;;;5054453;28;20036;-80
2022/05/28 05:57:20;;;;;;;5.65;2.03;;;40.20;58.60;;;;;;5050590;28;20073;-80
2022/05/28 05:59:46;;;;;;;7.53;1.58;;;40.50;58.10;;;;;;5034694;28;20025;-80
2022/05/28 06:02:12;;;;;;;7.10;1.73;;;41.00;57.10;;;;;;5054123;28;20033;-80
2022/05/28 06:04:39;;;;;;;6.72;1.60;;;41.20;56.20;;;;;;5054066;28;20481;-75
2022/05/28 06:07:17;;;;;;;7.80;1.80;;;41.40;55.90;;;;;;5069999;28;20350;-81
2022/05/28 06:09:43;;;;;;;6.78;1.70;;;41.80;55.20;;;;;;5073263;28;20325;-81
2022/05/28 06:12:10;;;;;;;6.97;1.85;;;41.70;54.90;;;;;;5073365;28;20032;-81
2022/05/28 06:14:36;;;;;;;7.10;1.55;;;42.00;54.60;;;;;;5068895;28;20027;-75
2022/05/28 06:17:03;;;;;;;5.47;1.58;;;41.40;54.30;;;;;;5073584;28;20024;-81
2022/05/28 06:19:29;;;;;;;31.10;3.47;;;40.20;55.80;;;;;;5061177;28;20029;-82
2022/05/28 06:21:59;;;;;;;32.08;3.53;;;39.90;56.50;;;;;;5063805;28;20393;-79
2022/05/28 06:24:25;;;;;;;19.40;2.83;;;39.50;56.40;;;;;;5061264;28;20021;-82
2022/05/28 06:26:51;;;;;;;9.82;2.15;;;38.50;57.20;;;;;;5054368;28;20039;-83
2022/05/28 06:29:17;;;;;;;8.00;2.10;;;36.80;59.20;;;;;;5056456;28;20025;-83
2022/05/28 06:31:46;;;;;;;10.80;2.00;;;34.20;63.30;;;;;;5074689;28;20492;-83
2022/05/28 06:34:14;;;;;;;8.82;2.50;;;33.10;67.50;;;;;;5056259;28;20386;-84
2022/05/28 06:36:41;;;;;;;34.35;4.25;;;33.60;67.40;;;;;;5074811;28;20099;-82
2022/05/28 06:39:07;;;;;;;7.38;1.90;;;34.40;65.60;;;;;;5073231;28;20072;-82
2022/05/28 06:41:33;;;;;;;31.20;4.15;;;35.80;63.90;;;;;;5054859;28;20017;-82
2022/05/28 06:43:59;;;;;;;9.15;1.92;;;36.90;61.90;;;;;;5055355;28;20025;-80
2022/05/28 06:46:26;;;;;;;14.20;2.03;;;37.50;60.70;;;;;;5056003;28;20110;-83
2022/05/28 06:48:52;;;;;;;8.23;2.28;;;36.80;61.00;;;;;;5072585;28;20044;-85
2022/05/28 06:51:18;;;;;;;25.80;2.80;;;35.50;62.50;;;;;;5073584;28;20032;-78
2022/05/28 06:53:48;;;;;;;41.85;4.10;;;33.90;65.00;;;;;;5073410;28;20012;-82
2022/05/28 06:56:16;;;;;;;39.72;3.88;;;32.60;68.70;;;;;;5055994;28;20047;-82
2022/05/28 06:58:48;;;;;;;12.30;2.65;;;31.60;71.50;;;;;;5073613;28;20063;-83
2022/05/28 07:01:17;;;;;;;19.63;3.20;;;30.50;74.10;;;;;;5072254;28;20056;-83
2022/05/28 07:03:43;;;;;;;58.50;6.82;;;29.60;77.00;;;;;;5053773;28;20029;-83
2022/05/28 07:06:11;;;;;;;21.75;3.15;;;29.10;78.10;;;;;;5072645;28;20071;-83
2022/05/28 07:08:38;;;;;;;14.00;2.40;;;28.50;80.20;;;;;;5072733;28;20427;-79
2022/05/28 07:11:05;;;;;;;;;;;28.60;80.70;;;;;;5072942;28;20067;-79
2022/05/28 07:13:47;;;;;;;113.88;11.35;;;29.10;80.70;;;;;;5072857;28;20426;-80
2022/05/28 07:16:13;;;;;;;105.80;10.80;;;29.50;79.70;;;;;;5073064;28;20454;-77
2022/05/28 07:18:42;;;;;;;18.15;3.40;;;29.50;79.10;;;;;;5073835;28;20447;-78
2022/05/28 07:21:09;;;;;;;38.53;3.72;;;29.10;79.50;;;;;;5073319;28;20039;-79
2022/05/28 07:23:36;;;;;;;21.25;2.35;;;28.80;80.00;;;;;;5073634;28;20041;-78
2022/05/28 07:26:15;;;;;;;8.20;2.10;;;28.60;80.80;;;;;;5056117;28;20416;-79
2022/05/28 07:28:42;;;;;;;9.25;1.83;;;28.20;81.20;;;;;;5073124;28;20078;-78
2022/05/28 07:31:18;;;;;;;6.82;1.70;;;28.20;82.10;;;;;;5073050;28;20029;-79
2022/05/28 07:33:46;;;;;;;11.70;2.10;;;28.30;83.10;;;;;;5073088;28;20052;-79
2022/05/28 07:36:16;;;;;;;9.45;2.17;;;28.30;83.00;;;;;;5072574;28;20029;-78
2022/05/28 07:38:46;;;;;;;13.32;2.30;;;28.10;83.90;;;;;;5072694;28;20051;-79
2022/05/28 07:41:15;;;;;;;12.30;1.85;;;27.80;84.60;;;;;;5073348;28;20024;-79
2022/05/28 07:43:42;;;;;;;11.82;2.08;;;27.70;85.30;;;;;;5073195;28;20024;-78
2022/05/28 07:46:17;;;;;;;9.50;1.80;;;27.80;85.50;;;;;;5072693;28;20052;-78
2022/05/28 07:48:43;;;;;;;12.48;2.72;;;27.90;85.00;;;;;;5072901;28;20028;-78
2022/05/28 07:51:09;;;;;;;;;;;28.10;84.00;;;;;;5054169;28;20037;-77
2022/05/28 07:53:36;;;;;;;23.52;9.82;;;28.10;84.50;;;;;;5067346;28;19913;-83
2022/05/28 07:56:05;;;;;;;12.98;4.32;;;28.20;85.60;;;;;;5052854;28;20413;-79
2022/05/28 07:58:32;;;;;;;15.88;3.40;;;28.20;85.50;;;;;;5061292;28;20029;-79
2022/05/28 08:00:58;;;;;;;;;;;27.90;86.90;;;;;;5069114;28;20052;-82
2022/05/28 08:03:25;;;;;;;13.18;4.53;;;27.80;87.30;;;;;;5071939;28;19912;-83
2022/05/28 08:05:53;;;;;;;10.20;3.10;;;27.70;87.80;;;;;;5073345;28;20043;-89
2022/05/28 08:08:21;;;;;;;13.82;3.20;;;27.80;86.00;;;;;;5073847;28;20024;-91
2022/05/28 08:10:48;;;;;;;11.98;3.90;;;27.60;86.50;;;;;;5073654;28;20127;-85
2022/05/28 08:13:18;;;;;;;12.00;2.92;;;27.50;86.60;;;;;;5072507;28;20440;-85
2022/05/28 08:15:45;;;;;;;14.85;4.13;;;27.30;88.30;;;;;;5072538;28;20025;-90
2022/05/28 08:18:14;;;;;;;11.55;3.65;;;27.00;90.20;;;;;;5074802;28;20028;-93
2022/05/28 08:23:25;;;;;;;19.40;10.55;;;27.00;90.90;;;;;;5073256;28;20039;-91
2022/05/28 08:25:51;;;;;;;18.20;9.85;;;27.30;90.80;;;;;;5064882;28;20397;-80
2022/05/28 08:28:18;;;;;;;;;;;27.20;90.50;;;;;;5053281;28;20036;-83
2022/05/28 08:30:45;;;;;;;9.57;3.17;;;27.50;90.30;;;;;;5051656;28;19912;-83
2022/05/28 08:33:14;;;;;;;12.02;3.78;;;27.60;90.00;;;;;;5052715;28;20040;-79
2022/05/28 08:35:41;;;;;;;13.98;3.10;;;27.50;90.20;;;;;;5067677;28;20095;-76
2022/05/28 08:38:13;;;;;;;12.02;3.88;;;27.40;90.60;;;;;;5071920;28;20063;-76
2022/05/28 08:40:53;;;;;;;11.40;2.70;;;27.30;90.80;;;;;;5069236;28;20104;-77
2022/05/28 08:43:21;;;;;;;8.82;2.38;;;27.40;90.80;;;;;;5071889;28;20024;-76
2022/05/28 08:45:50;;;;;;;11.52;3.25;;;27.10;91.50;;;;;;5061332;28;20033;-77
2022/05/28 08:48:27;;;;;;;12.88;3.85;;;27.10;91.50;;;;;;5051631;28;20104;-78
2022/05/28 08:51:04;;;;;;;11.43;2.53;;;27.60;92.90;;;;;;5064698;28;20028;-76
2022/05/28 08:53:35;;;;;;;15.13;4.05;;;27.60;90.80;;;;;;5053278;28;20037;-76
2022/05/28 08:56:03;;;;;;;8.40;2.33;;;27.90;91.10;;;;;;5071904;28;20024;-75
2022/05/28 08:58:32;;;;;;;10.15;2.55;;;27.70;91.40;;;;;;5056701;28;20025;-75
2022/05/28 09:01:16;;;;;;;16.70;3.13;;;27.60;90.80;;;;;;5051335;28;20064;-77
2022/05/28 09:03:57;;;;;;;9.27;3.33;;;27.70;90.50;;;;;;5058323;28;20035;-77
2022/05/28 09:06:31;;;;;;;16.45;3.35;;;27.70;90.40;;;;;;5070008;28;20435;-76
2022/05/28 09:08:59;;;;;;;10.13;4.00;;;27.90;90.20;;;;;;5070337;28;20480;-76
2022/05/28 09:11:36;;;;;;;14.57;3.03;;;27.80;90.30;;;;;;5054712;28;20095;-77
2022/05/28 09:14:27;;;;;;;10.02;3.00;;;28.00;90.60;;;;;;5071188;28;20389;-77
2022/05/28 09:16:56;;;;;;;9.60;2.95;;;28.40;89.50;;;;;;5070914;28;20124;-78
2022/05/28 09:19:27;;;;;;;13.32;2.95;;;28.30;89.30;;;;;;5071157;28;20125;-76
2022/05/28 09:21:54;;;;;;;13.68;2.42;;;28.50;88.10;;;;;;5068408;28;20465;-76
2022/05/28 09:24:26;;;;;;;12.52;2.70;;;28.40;87.60;;;;;;5053354;28;20024;-77
2022/05/28 09:30:19;;;;;;;8.02;2.42;;;28.30;88.20;;;;;;5069773;28;20457;-81
2022/05/28 09:32:56;;;;;;;14.85;2.70;;;28.40;88.30;;;;;;5070710;28;20390;-81
2022/05/28 09:35:48;;;;;;;11.35;2.30;;;28.00;88.40;;;;;;5071510;28;20110;-81
2022/05/28 09:38:17;;;;;;;13.82;3.00;;;27.80;89.10;;;;;;5058987;28;20388;-77
2022/05/28 09:40:51;;;;;;;8.68;2.50;;;27.40;90.00;;;;;;5069500;28;20366;-81
2022/05/28 09:43:54;;;;;;;11.63;2.58;;;26.90;90.60;;;;;;5071624;28;20058;-81
2022/05/28 09:46:34;;;;;;;11.88;2.45;;;26.70;90.60;;;;;;5069365;28;20029;-79
2022/05/28 09:49:03;;;;;;;15.95;2.58;;;26.70;91.40;;;;;;5071596;28;20097;-80
2022/05/28 09:51:31;;;;;;;19.52;3.08;;;26.70;91.70;;;;;;5058808;28;20037;-80
2022/05/28 09:54:20;;;;;;;12.23;2.40;;;27.00;91.90;;;;;;5070867;28;20295;-81
2022/05/28 09:57:11;;;;;;;14.13;2.50;;;26.80;92.30;;;;;;5071239;28;20039;-80
2022/05/28 09:59:43;;;;;;;17.75;2.97;;;26.90;92.50;;;;;;5071236;28;20375;-80
2022/05/28 10:02:34;;;;;;;9.10;2.15;;;27.00;92.40;;;;;;5055784;28;20474;-80
2022/05/28 10:05:20;;;;;;;9.23;2.40;;;27.00;92.00;;;;;;5055697;28;20074;-79
2022/05/28 10:07:59;;;;;;;8.48;2.10;;;26.80;92.60;;;;;;5054723;28;20451;-80
2022/05/28 10:10:30;;;;;;;10.23;2.78;;;26.70;92.60;;;;;;5074115;28;20108;-81
2022/05/28 10:13:14;;;;;;;14.00;2.80;;;26.70;92.70;;;;;;5074243;28;20379;-80
2022/05/28 10:15:46;;;;;;;14.50;2.90;;;26.70;93.30;;;;;;5074265;28;20060;-80
2022/05/28 10:18:17;;;;;;;9.88;2.70;;;26.80;92.90;;;;;;5073300;28;20456;-79
2022/05/28 10:20:44;;;;;;;11.93;2.70;;;27.00;93.20;;;;;;5054691;28;20024;-79
2022/05/28 10:23:21;;;;;;;13.07;2.72;;;27.00;92.50;;;;;;5073711;28;20469;-79
2022/05/28 10:25:50;;;;;;;24.98;3.85;;;27.00;92.50;;;;;;5073538;28;20085;-79
2022/05/28 10:28:44;;;;;;;12.98;3.25;;;26.70;96.00;;;;;;5055467;28;20381;-78
2022/05/28 10:31:40;;;;;;;12.32;2.92;;;26.30;98.50;;;;;;5073694;28;20076;-79
2022/05/28 10:34:07;;;;;;;14.68;3.13;;;26.20;99.90;;;;;;5069801;28;20051;-79
2022/05/28 10:36:36;;;;;;;13.77;3.10;;;26.30;99.90;;;;;;5055360;28;20029;-79
2022/05/28 10:39:16;;;;;;;14.98;3.60;;;26.30;99.90;;;;;;5073570;28;20075;-79
2022/05/28 10:41:43;;;;;;;14.88;3.50;;;26.10;99.90;;;;;;5073266;28;20400;-79
2022/05/28 10:44:15;;;;;;;16.92;2.58;;;26.30;99.90;;;;;;5073143;28;20384;-79
2022/05/28 10:47:07;;;;;;;18.30;3.10;;;26.20;98.90;;;;;;5054998;28;20239;-78
2022/05/28 10:49:47;;;;;;;32.65;4.05;;;26.20;99.40;;;;;;5073885;28;20032;-75
2022/05/28 10:52:26;;;;;;;11.85;2.95;;;26.10;98.50;;;;;;5073602;28;20039;-74
2022/05/28 10:55:05;;;;;;;22.23;2.97;;;26.20;99.40;;;;;;5074072;28;20058;-75
2022/05/28 10:58:05;;;;;;;13.25;2.70;;;26.00;99.70;;;;;;5073433;28;20028;-71
2022/05/28 11:01:01;;;;;;;16.15;3.17;;;25.70;99.40;;;;;;5071755;28;20075;-74
2022/05/28 11:03:54;;;;;;;16.30;2.97;;;25.70;99.90;;;;;;5056591;28;20052;-70
2022/05/28 11:06:45;;;;;;;15.07;3.08;;;25.90;99.90;;;;;;5073254;28;20024;-70
2022/05/28 11:09:53;;;;;;;17.92;3.30;;;25.70;99.90;;;;;;5050387;28;20036;-73
2022/05/28 11:12:22;;;;;;;15.95;3.05;;;25.90;99.90;;;;;;5032244;28;20055;-72
2022/05/28 11:15:45;;;;;;;14.07;3.25;;;26.10;99.50;;;;;;5061708;28;20021;-82
2022/05/28 11:18:23;;;;;;;11.50;2.70;;;26.10;99.30;;;;;;5028870;28;20037;-75
2022/05/28 11:20:55;;;;;;;12.50;2.40;;;26.10;99.60;;;;;;5029397;28;20394;-79
2022/05/28 11:23:50;;;;;;;13.80;2.55;;;26.40;99.60;;;;;;5030567;28;20057;-77
2022/05/28 11:26:35;;;;;;;18.75;3.30;;;26.60;98.70;;;;;;5029958;28;20030;-83
2022/05/28 11:29:20;;;;;;;;;;;26.60;97.50;;;;;;5031682;28;20037;-85
2022/05/28 11:32:15;;;;;;;14.27;3.28;;;26.30;98.10;;;;;;5030944;28;19932;-81
2022/05/28 11:34:50;;;;;;;12.30;2.58;;;26.30;98.70;;;;;;5016455;28;20520;-86
2022/05/28 11:37:29;;;;;;;12.13;2.72;;;26.30;98.40;;;;;;5022179;28;20049;-76
2022/05/28 11:40:07;;;;;;;11.60;3.15;;;26.50;98.30;;;;;;5030369;28;20036;-78
2022/05/28 11:43:03;;;;;;;14.48;3.50;;;25.90;98.30;;;;;;5010668;28;20379;-83
2022/05/28 11:45:56;;;;;;;16.45;3.08;;;25.90;99.10;;;;;;5024382;28;20038;-80
2022/05/28 11:51:33;;;;;;;13.90;3.13;;;26.00;99.00;;;;;;5061503;28;20036;-80
2022/05/28 11:54:13;;;;;;;12.10;3.00;;;26.00;98.10;;;;;;5053315;28;20037;-80
2022/05/28 11:56:39;;;;;;;11.57;2.80;;;26.00;97.20;;;;;;5072342;28;20350;-80
2022/05/28 11:59:13;;;;;;;11.85;4.20;;;26.30;96.80;;;;;;5073199;28;20056;-80
2022/05/28 12:01:49;;;;;;;13.15;3.13;;;26.20;96.20;;;;;;5071204;28;20048;-79
2022/05/28 12:04:16;;;;;;;12.05;2.65;;;26.00;96.30;;;;;;5072700;28;20151;-80
2022/05/28 12:06:48;;;;;;;;;;;25.90;96.30;;;;;;5071566;28;20031;-80
2022/05/28 12:09:22;;;;;;;11.57;3.00;;;25.90;96.80;;;;;;5072891;28;19940;-79
2022/05/28 12:12:16;;;;;;;14.93;3.30;;;26.20;96.80;;;;;;5072471;28;20083;-79
2022/05/28 12:14:47;;;;;;;16.65;3.15;;;26.40;96.20;;;;;;5071988;28;20098;-76
2022/05/28 12:17:19;;;;;;;13.65;2.92;;;26.30;96.00;;;;;;5072962;28;20024;-79
2022/05/28 12:19:50;;;;;;;11.30;3.05;;;26.50;96.10;;;;;;5071710;28;20060;-80
2022/05/28 12:22:30;;;;;;;12.27;3.08;;;26.40;96.50;;;;;;5072943;28;20024;-81
2022/05/28 12:25:28;;;;;;;14.50;3.50;;;26.30;96.40;;;;;;5071405;28;20020;-80
2022/05/28 12:27:54;;;;;;;13.25;3.03;;;26.30;96.80;;;;;;5054038;28;20103;-80
2022/05/28 12:30:48;;;;;;;17.27;3.40;;;26.20;97.40;;;;;;5072428;28;20083;-77
2022/05/28 12:33:27;;;;;;;14.68;3.30;;;25.90;99.40;;;;;;5071152;28;20400;-82
2022/05/28 12:36:15;;;;;;;13.75;2.88;;;25.60;99.90;;;;;;5069199;28;20039;-82
2022/05/28 12:38:58;;;;;;;14.27;3.40;;;25.40;99.90;;;;;;5053108;28;20124;-82
2022/05/28 12:41:38;;;;;;;15.18;3.10;;;25.20;99.90;;;;;;5063731;28;20021;-81
2022/05/28 12:44:19;;;;;;;14.38;3.10;;;25.00;99.90;;;;;;5073157;28;20430;-82
2022/05/28 12:46:50;;;;;;;12.95;2.70;;;25.00;99.90;;;;;;5070369;28;20020;-81
2022/05/28 12:49:27;;;;;;;11.18;2.80;;;24.90;99.90;;;;;;5052771;28;20064;-81
2022/05/28 12:52:20;;;;;;;13.52;2.63;;;25.10;99.90;;;;;;5068736;28;20115;-80
2022/05/28 12:54:57;;;;;;;9.93;2.60;;;25.50;99.90;;;;;;5072509;28;20039;-79
2022/05/28 12:57:29;;;;;;;11.30;2.88;;;25.80;99.90;;;;;;5068819;28;20503;-74
2022/05/28 13:00:04;;;;;;;9.55;2.88;;;26.10;99.90;;;;;;5071859;28;20037;-79
2022/05/28 13:02:47;;;;;;;9.35;2.78;;;26.40;99.90;;;;;;5071362;28;20072;-77
2022/05/28 13:05:29;;;;;;;14.75;2.90;;;26.50;99.90;;;;;;5070906;28;20508;-77
2022/05/28 13:08:05;;;;;;;8.85;2.42;;;26.40;99.90;;;;;;5055369;28;20029;-80
2022/05/28 13:10:31;;;;;;;10.95;3.10;;;26.20;99.90;;;;;;5065171;28;20024;-79
2022/05/28 13:13:22;;;;;;;13.15;3.03;;;26.20;99.90;;;;;;5054560;28;20561;-79
2022/05/28 13:16:27;;;;;;;12.48;2.63;;;26.10;99.90;;;;;;5054344;28;20044;-79
2022/05/28 13:19:15;;;;;;;17.75;3.13;;;26.20;99.10;;;;;;5063564;28;20484;-78
2022/05/28 13:21:47;;;;;;;14.00;2.63;;;26.20;99.00;;;;;;5072044;28;20477;-73